createdAt,value
2022-12-31T00:02:20.361Z,0.50
2022-12-31T00:04:46.821Z,0.95
2022-12-31T00:07:13.152Z,1.23
2022-12-31T00:09:39.487Z,1.50
2022-12-31T00:12:06.083Z,2.10
2022-12-31T00:14:32.489Z,3.45
2022-12-31T00:16:58.958Z,1.17
2022-12-31T00:19:25.374Z,1.05
2022-12-31T00:21:51.773Z,1.42
2022-12-31T00:24:18.106Z,1.93
2022-12-31T00:26:44.548Z,1.33
2022-12-31T00:29:11.051Z,2.78
2022-12-31T00:31:38.854Z,3.53
2022-12-31T00:34:06.134Z,1.75
2022-12-31T00:36:35.876Z,1.93
2022-12-31T00:39:04.236Z,1.40
2022-12-31T00:41:31.750Z,1.67
2022-12-31T00:43:58.225Z,2.33
2022-12-31T00:46:25.397Z,1.77
2022-12-31T00:48:52.076Z,1.33
2022-12-31T00:51:20.921Z,1.27
2022-12-31T00:53:47.275Z,1.27
2022-12-31T00:56:19.273Z,1.40
2022-12-31T00:58:46.139Z,0.93
2022-12-31T01:01:18.983Z,1.53
2022-12-31T01:03:47.675Z,3.17
2022-12-31T01:06:14.396Z,0.95
2022-12-31T01:08:40.818Z,4.28
2022-12-31T01:11:20.402Z,1.80
2022-12-31T01:13:53.922Z,1.13
2022-12-31T01:16:22.960Z,1.13
2022-12-31T01:18:50.244Z,1.42
2022-12-31T01:21:17.872Z,1.00
2022-12-31T01:23:44.713Z,2.78
2022-12-31T01:26:13.461Z,1.40
2022-12-31T01:28:39.898Z,1.10
2022-12-31T01:31:08.568Z,1.80
2022-12-31T01:33:35.904Z,1.45
2022-12-31T01:36:04.446Z,1.20
2022-12-31T01:38:30.826Z,1.60
2022-12-31T01:40:57.312Z,2.42
2022-12-31T01:43:23.709Z,1.70
2022-12-31T01:45:54.319Z,2.33
2022-12-31T01:48:26.240Z,1.27
2022-12-31T01:50:54.751Z,1.17
2022-12-31T01:53:21.791Z,2.83
2022-12-31T01:55:56.473Z,0.98
2022-12-31T01:58:36.629Z,2.65
2022-12-31T02:01:04.504Z,4.20
2022-12-31T02:03:31.642Z,1.00
2022-12-31T02:06:05.420Z,1.73
2022-12-31T02:08:35.737Z,1.45
2022-12-31T02:11:23.728Z,3.15
2022-12-31T02:13:58.196Z,2.60
2022-12-31T02:16:35.662Z,1.90
2022-12-31T02:19:23.457Z,1.30
2022-12-31T02:22:31.884Z,1.85
2022-12-31T02:25:13.813Z,1.45
2022-12-31T02:28:21.828Z,2.03
2022-12-31T02:30:53.292Z,3.43
2022-12-31T02:33:59.668Z,1.05
2022-12-31T02:36:31.939Z,4.88
2022-12-31T02:38:59.434Z,2.08
2022-12-31T02:41:44.325Z,1.52
2022-12-31T02:44:24.118Z,1.83
2022-12-31T02:47:50.516Z,1.17
2022-12-31T02:50:55.331Z,1.33
2022-12-31T02:53:44.203Z,3.53
2022-12-31T02:56:19.995Z,0.70
2022-12-31T02:59:13.108Z,3.13
2022-12-31T03:02:04.039Z,1.60
2022-12-31T03:04:32.475Z,0.50
2022-12-31T03:07:06.824Z,1.58
2022-12-31T03:09:34.944Z,1.92
2022-12-31T03:12:21.017Z,2.47
2022-12-31T03:14:47.551Z,2.88
2022-12-31T03:17:14.360Z,2.97
2022-12-31T03:19:59.525Z,1.83
2022-12-31T03:22:28.708Z,1.52
2022-12-31T03:25:54.360Z,1.30
2022-12-31T03:28:23.275Z,3.03
2022-12-31T03:30:53.749Z,1.52
2022-12-31T03:33:21.525Z,2.00
2022-12-31T03:35:49.320Z,5.25
2022-12-31T03:38:16.918Z,1.67
2022-12-31T03:40:49.380Z,1.85
2022-12-31T03:43:16.585Z,1.42
2022-12-31T03:45:43.166Z,2.42
2022-12-31T03:48:10.591Z,2.08
2022-12-31T03:50:37.300Z,2.63
2022-12-31T03:53:03.793Z,1.15
2022-12-31T03:55:30.203Z,1.95
2022-12-31T03:57:56.996Z,0.98
2022-12-31T04:00:23.449Z,1.23
2022-12-31T04:02:50.846Z,1.00
2022-12-31T04:05:18.163Z,1.90
2022-12-31T04:07:44.683Z,1.25
2022-12-31T04:10:13.233Z,1.27
2022-12-31T04:12:39.979Z,0.80
2022-12-31T04:15:07.573Z,3.37
2022-12-31T04:17:34.302Z,2.03
2022-12-31T04:20:00.688Z,0.77
2022-12-31T04:22:27.034Z,1.00
2022-12-31T04:24:53.474Z,1.02
2022-12-31T04:27:19.864Z,0.90
2022-12-31T04:29:46.286Z,0.57
2022-12-31T04:32:12.741Z,0.82
2022-12-31T04:34:39.180Z,1.90
2022-12-31T04:37:05.519Z,0.57
2022-12-31T04:39:32.164Z,1.47
2022-12-31T04:41:58.637Z,0.98
2022-12-31T04:44:25.014Z,1.15
2022-12-31T04:46:51.544Z,1.10
2022-12-31T04:49:18.040Z,1.52
2022-12-31T04:51:44.468Z,1.00
2022-12-31T04:54:11.112Z,1.58
2022-12-31T04:56:37.679Z,0.70
2022-12-31T04:59:04.923Z,0.95
2022-12-31T05:01:31.594Z,1.30
2022-12-31T05:03:58.736Z,1.73
2022-12-31T05:06:25.195Z,4.32
2022-12-31T05:08:51.751Z,2.20
2022-12-31T05:11:18.281Z,1.40
2022-12-31T05:13:44.822Z,1.60
2022-12-31T05:16:11.637Z,1.17
2022-12-31T05:18:38.156Z,1.67
2022-12-31T05:21:05.226Z,1.45
2022-12-31T05:23:31.591Z,1.15
2022-12-31T05:25:59.649Z,1.50
2022-12-31T05:28:26.461Z,1.00
2022-12-31T05:30:52.963Z,0.90
2022-12-31T05:33:20.648Z,0.70
2022-12-31T05:35:47.220Z,1.17
2022-12-31T05:38:13.672Z,0.75
2022-12-31T05:40:40.024Z,0.70
2022-12-31T05:43:06.381Z,0.80
2022-12-31T05:45:32.734Z,0.60
2022-12-31T05:47:59.207Z,1.48
2022-12-31T05:50:25.597Z,0.65
2022-12-31T05:52:52.143Z,1.63
2022-12-31T05:55:18.790Z,0.55
2022-12-31T05:57:45.188Z,0.70
2022-12-31T06:00:12.559Z,0.98
2022-12-31T06:02:38.965Z,0.70
2022-12-31T06:05:05.840Z,0.50
2022-12-31T06:07:32.327Z,0.60
2022-12-31T06:09:59.004Z,0.50
2022-12-31T06:12:25.483Z,0.50
2022-12-31T06:14:51.873Z,0.50
2022-12-31T06:17:19.010Z,0.80
2022-12-31T06:19:46.595Z,0.40
2022-12-31T06:22:12.954Z,0.60
2022-12-31T06:24:39.381Z,0.50
2022-12-31T06:27:05.738Z,0.70
2022-12-31T06:29:32.123Z,1.00
2022-12-31T06:31:58.459Z,0.77
2022-12-31T06:34:24.945Z,1.27
2022-12-31T06:36:51.350Z,1.00
2022-12-31T06:39:17.747Z,0.80
2022-12-31T06:41:44.151Z,1.30
2022-12-31T06:44:10.561Z,1.25
2022-12-31T06:46:36.935Z,0.73
2022-12-31T06:49:03.442Z,1.40
2022-12-31T06:51:29.998Z,1.67
2022-12-31T06:53:56.452Z,1.23
2022-12-31T06:56:33.072Z,1.55
2022-12-31T06:59:02.735Z,1.40
2022-12-31T07:01:38.332Z,1.38
2022-12-31T07:04:04.761Z,1.30
2022-12-31T07:06:40.205Z,1.20
2022-12-31T07:09:17.337Z,1.33
2022-12-31T07:12:06.525Z,1.02
2022-12-31T07:14:46.264Z,0.93
2022-12-31T07:17:54.054Z,1.20
2022-12-31T07:20:20.893Z,1.33
2022-12-31T07:22:48.080Z,0.68
2022-12-31T07:25:17.328Z,0.63
2022-12-31T07:27:51.201Z,0.85
2022-12-31T07:30:24.593Z,0.40
2022-12-31T07:33:26.275Z,0.90
2022-12-31T07:36:00.336Z,0.38
2022-12-31T07:38:29.728Z,1.45
2022-12-31T07:41:01.603Z,0.32
2022-12-31T07:43:44.703Z,1.15
2022-12-31T07:46:28.644Z,0.30
2022-12-31T07:48:55.359Z,0.20
2022-12-31T07:51:22.192Z,0.20
2022-12-31T07:53:48.553Z,0.30
2022-12-31T07:56:14.982Z,0.28
2022-12-31T07:58:59.542Z,0.40
2022-12-31T08:01:47.347Z,0.45
2022-12-31T08:04:33.853Z,1.67
2022-12-31T08:07:22.131Z,1.05
2022-12-31T08:10:14.007Z,0.50
2022-12-31T08:12:46.804Z,0.67
2022-12-31T08:15:16.094Z,0.77
2022-12-31T08:17:42.752Z,0.68
2022-12-31T08:20:14.634Z,0.47
2022-12-31T08:23:02.916Z,0.57
2022-12-31T08:26:06.199Z,0.33
2022-12-31T08:29:10.095Z,1.17
2022-12-31T08:31:44.979Z,1.25
2022-12-31T08:34:22.380Z,0.40
2022-12-31T08:37:16.410Z,1.33
2022-12-31T08:40:07.104Z,0.53
2022-12-31T08:42:36.552Z,0.40
2022-12-31T08:45:15.172Z,0.40
2022-12-31T08:48:00.435Z,0.38
2022-12-31T08:50:27.704Z,0.57
2022-12-31T08:52:54.506Z,0.50
2022-12-31T08:55:21.181Z,0.50
2022-12-31T08:58:18.299Z,0.20
2022-12-31T09:00:46.520Z,1.77
2022-12-31T09:03:28.807Z,0.57
2022-12-31T09:06:10.330Z,0.90
2022-12-31T09:08:52.696Z,0.63
2022-12-31T09:11:25.150Z,1.25
2022-12-31T09:14:21.248Z,0.30
2022-12-31T09:17:21.472Z,0.70
2022-12-31T09:19:48.084Z,0.30
2022-12-31T09:22:14.682Z,1.27
2022-12-31T09:24:41.301Z,1.23
2022-12-31T09:27:21.163Z,0.47
2022-12-31T09:30:04.573Z,0.60
2022-12-31T09:33:01.041Z,0.50
2022-12-31T09:35:39.751Z,1.52
2022-12-31T09:38:17.049Z,1.30
2022-12-31T09:41:02.109Z,1.60
2022-12-31T09:43:47.447Z,3.65
2022-12-31T09:46:55.582Z,1.77
2022-12-31T09:49:51.132Z,1.90
2022-12-31T09:52:44.345Z,1.10
2022-12-31T09:55:31.092Z,2.13
2022-12-31T09:58:25.466Z,2.72
2022-12-31T10:00:59.010Z,4.97
2022-12-31T10:03:38.877Z,3.38
2022-12-31T10:06:32.983Z,3.70
2022-12-31T10:09:37.064Z,1.55
2022-12-31T10:12:28.520Z,1.33
2022-12-31T10:14:57.783Z,4.70
2022-12-31T10:17:45.468Z,3.75
2022-12-31T10:20:30.033Z,2.17
2022-12-31T10:23:17.907Z,2.08
2022-12-31T10:26:01.131Z,3.25
2022-12-31T10:28:30.356Z,3.07
2022-12-31T10:31:15.007Z,0.98
2022-12-31T10:34:02.759Z,2.75
2022-12-31T10:36:48.397Z,2.15
2022-12-31T10:39:38.177Z,1.13
2022-12-31T10:42:50.259Z,1.20
2022-12-31T10:45:45.661Z,2.33
2022-12-31T10:48:40.028Z,1.55
2022-12-31T10:51:33.245Z,1.48
2022-12-31T10:54:02.620Z,1.33
2022-12-31T10:56:50.844Z,1.10
2022-12-31T10:59:50.080Z,3.22
2022-12-31T11:02:34.999Z,6.05
2022-12-31T11:05:11.609Z,4.43
2022-12-31T11:07:54.650Z,4.85
2022-12-31T11:10:47.355Z,1.10
2022-12-31T11:13:52.467Z,4.10
2022-12-31T11:16:43.279Z,3.35
2022-12-31T11:19:24.644Z,2.75
2022-12-31T11:22:15.294Z,1.63
2022-12-31T11:25:03.605Z,2.10
2022-12-31T11:27:49.317Z,3.33
2022-12-31T11:30:24.526Z,2.55
2022-12-31T11:33:12.957Z,3.30
2022-12-31T11:36:24.569Z,6.75
2022-12-31T11:39:25.836Z,2.00
2022-12-31T11:42:14.750Z,2.67
2022-12-31T11:44:47.157Z,3.63
2022-12-31T11:50:52.668Z,3.13
2022-12-31T11:53:39.186Z,2.13
2022-12-31T11:56:17.386Z,2.63
2022-12-31T11:58:52.137Z,2.33
2022-12-31T12:01:24.734Z,5.68
2022-12-31T12:03:51.316Z,5.90
2022-12-31T12:06:23.905Z,2.80
2022-12-31T12:08:50.537Z,3.92
2022-12-31T12:11:30.334Z,3.75
2022-12-31T12:13:56.973Z,3.47
2022-12-31T12:16:25.344Z,3.30
2022-12-31T12:19:04.103Z,2.87
2022-12-31T12:21:30.731Z,4.65
2022-12-31T12:24:06.263Z,2.35
2022-12-31T12:26:47.263Z,1.60
2022-12-31T12:29:18.116Z,2.25
2022-12-31T12:32:17.620Z,2.30
2022-12-31T12:34:49.361Z,3.35
2022-12-31T12:37:25.089Z,2.90
2022-12-31T12:40:04.327Z,3.38
2022-12-31T12:42:31.477Z,1.75
2022-12-31T12:45:06.239Z,2.60
2022-12-31T12:47:34.236Z,2.65
2022-12-31T12:50:00.946Z,5.38
2022-12-31T12:52:56.401Z,3.70
2022-12-31T12:55:49.787Z,4.22
2022-12-31T12:58:34.089Z,4.30
2022-12-31T13:01:14.826Z,3.92
2022-12-31T13:04:14.608Z,3.00
2022-12-31T13:06:45.292Z,4.68
2022-12-31T13:09:22.465Z,3.20
2022-12-31T13:11:54.127Z,1.83
2022-12-31T13:14:32.758Z,1.67
2022-12-31T13:17:17.824Z,2.78
2022-12-31T13:20:11.816Z,2.65
2022-12-31T13:22:45.204Z,2.60
2022-12-31T13:25:48.676Z,2.53
2022-12-31T13:28:18.054Z,2.22
2022-12-31T13:30:49.311Z,3.63
2022-12-31T13:33:23.774Z,6.47
2022-12-31T13:35:59.351Z,3.90
2022-12-31T13:38:40.529Z,3.00
2022-12-31T13:41:25.475Z,2.60
2022-12-31T13:44:16.231Z,2.63
2022-12-31T13:47:03.552Z,4.22
2022-12-31T13:49:36.640Z,3.38
2022-12-31T13:52:19.163Z,2.20
2022-12-31T13:54:57.026Z,4.82
2022-12-31T13:57:40.856Z,2.85
2022-12-31T14:00:21.242Z,2.67
2022-12-31T14:02:53.795Z,5.53
2022-12-31T14:05:34.264Z,2.13
2022-12-31T14:08:02.725Z,3.20
2022-12-31T14:10:54.607Z,4.20
2022-12-31T14:13:32.510Z,2.25
2022-12-31T14:16:06.952Z,7.10
2022-12-31T14:18:44.849Z,4.67
2022-12-31T14:21:23.252Z,2.22
2022-12-31T14:24:09.693Z,3.50
2022-12-31T14:26:44.335Z,2.67
2022-12-31T14:29:10.976Z,3.80
2022-12-31T14:31:49.758Z,5.47
2022-12-31T14:34:29.113Z,3.38
2022-12-31T14:37:09.160Z,4.15
2022-12-31T14:40:00.741Z,4.57
2022-12-31T14:42:40.915Z,2.05
2022-12-31T14:45:38.697Z,7.13
2022-12-31T14:48:20.186Z,2.97
2022-12-31T14:50:48.836Z,4.72
2022-12-31T14:53:22.203Z,6.47
2022-12-31T14:56:01.402Z,4.93
2022-12-31T14:58:42.659Z,3.00
2022-12-31T15:01:15.249Z,5.10
2022-12-31T15:03:46.350Z,3.30
2022-12-31T15:06:22.388Z,3.20
2022-12-31T15:09:26.445Z,4.25
2022-12-31T15:12:09.957Z,5.33
2022-12-31T15:15:15.380Z,7.50
2022-12-31T15:17:59.794Z,6.38
2022-12-31T15:20:55.556Z,5.55
2022-12-31T15:23:37.020Z,7.45
2022-12-31T15:26:05.478Z,5.00
2022-12-31T15:28:34.101Z,4.97
2022-12-31T15:31:19.091Z,7.97
2022-12-31T15:34:01.285Z,6.72
2022-12-31T15:36:31.777Z,6.63
2022-12-31T15:39:11.946Z,7.70
2022-12-31T15:42:03.071Z,14.75
2022-12-31T15:44:37.866Z,12.05
2022-12-31T15:47:29.618Z,8.27
2022-12-31T15:50:01.662Z,12.95
2022-12-31T15:52:42.897Z,5.13
2022-12-31T15:55:20.300Z,8.90
2022-12-31T15:57:47.195Z,6.43
2022-12-31T16:00:20.230Z,9.07
2022-12-31T16:02:48.218Z,3.90
2022-12-31T16:05:26.779Z,5.40
2022-12-31T16:07:59.077Z,8.20
2022-12-31T16:10:29.259Z,9.90
2022-12-31T16:12:57.318Z,8.40
2022-12-31T16:15:27.377Z,10.10
2022-12-31T16:18:22.402Z,9.40
2022-12-31T16:20:49.321Z,5.50
2022-12-31T16:23:24.897Z,9.73
2022-12-31T16:25:53.581Z,6.60
2022-12-31T16:28:22.028Z,13.55
2022-12-31T16:31:15.122Z,10.67
2022-12-31T16:33:41.684Z,5.13
2022-12-31T16:36:20.832Z,6.80
2022-12-31T16:38:47.634Z,9.80
2022-12-31T16:41:19.678Z,8.98
2022-12-31T16:43:47.752Z,6.60
2022-12-31T16:46:17.199Z,11.25
2022-12-31T16:48:55.203Z,6.20
2022-12-31T16:51:25.787Z,7.53
2022-12-31T16:53:52.352Z,8.35
2022-12-31T16:56:34.241Z,8.57
2022-12-31T16:59:12.550Z,7.22
2022-12-31T17:01:39.704Z,7.85
2022-12-31T17:04:11.238Z,8.35
2022-12-31T17:06:37.809Z,7.07
2022-12-31T17:09:13.815Z,7.30
2022-12-31T17:11:55.071Z,11.10
2022-12-31T17:14:27.514Z,7.03
2022-12-31T17:17:05.673Z,11.63
2022-12-31T17:19:42.494Z,12.52
2022-12-31T17:22:32.755Z,10.43
2022-12-31T17:25:05.639Z,5.95
2022-12-31T17:27:32.625Z,11.73
2022-12-31T17:30:29.844Z,8.48
2022-12-31T17:33:12.418Z,5.82
2022-12-31T17:35:42.266Z,11.30
2022-12-31T17:38:20.846Z,8.93
2022-12-31T17:40:51.578Z,9.80
2022-12-31T17:43:21.022Z,9.35
2022-12-31T17:45:50.191Z,7.07
2022-12-31T17:48:19.108Z,8.00
2022-12-31T17:50:57.175Z,6.65
2022-12-31T17:53:23.687Z,10.15
2022-12-31T17:55:52.695Z,8.27
2022-12-31T17:58:31.841Z,5.78
2022-12-31T18:00:59.049Z,11.47
2022-12-31T18:03:25.551Z,12.07
2022-12-31T18:05:51.928Z,12.43
2022-12-31T18:08:18.399Z,12.50
2022-12-31T18:10:45.503Z,8.85
2022-12-31T18:13:21.133Z,9.63
2022-12-31T18:15:47.501Z,11.40
2022-12-31T18:18:24.327Z,10.60
2022-12-31T18:20:54.095Z,7.13
2022-12-31T18:23:28.517Z,9.52
2022-12-31T18:25:55.231Z,8.97
2022-12-31T18:28:21.689Z,8.25
2022-12-31T18:30:48.833Z,10.30
2022-12-31T18:33:22.356Z,5.70
2022-12-31T18:36:09.885Z,8.02
2022-12-31T18:38:36.908Z,8.87
2022-12-31T18:41:04.232Z,10.23
2022-12-31T18:43:30.933Z,6.63
2022-12-31T18:45:57.619Z,6.75
2022-12-31T18:48:24.068Z,7.68
2022-12-31T18:50:50.851Z,6.30
2022-12-31T18:53:22.082Z,12.05
2022-12-31T18:55:49.897Z,11.70
2022-12-31T18:58:16.847Z,8.88
2022-12-31T19:00:44.433Z,10.43
2022-12-31T19:03:22.697Z,17.23
2022-12-31T19:05:50.817Z,8.10
2022-12-31T19:08:18.691Z,10.85
2022-12-31T19:10:46.288Z,5.50
2022-12-31T19:13:14.628Z,8.43
2022-12-31T19:15:51.885Z,8.03
2022-12-31T19:18:18.711Z,8.65
2022-12-31T19:20:45.291Z,10.13
2022-12-31T19:23:17.968Z,5.22
2022-12-31T19:25:46.368Z,7.93
2022-12-31T19:28:17.439Z,7.57
2022-12-31T19:30:44.771Z,4.88
2022-12-31T19:33:11.716Z,6.80
2022-12-31T19:35:39.745Z,8.43
2022-12-31T19:38:11.915Z,11.18
2022-12-31T19:40:40.039Z,9.60
2022-12-31T19:43:12.492Z,6.20
2022-12-31T19:45:40.667Z,10.77
2022-12-31T19:48:11.666Z,8.50
2022-12-31T19:50:42.333Z,7.25
2022-12-31T19:53:12.003Z,3.53
2022-12-31T19:55:38.644Z,4.60
2022-12-31T19:58:06.029Z,5.10
2022-12-31T20:00:32.814Z,8.85
2022-12-31T20:02:59.524Z,5.57
2022-12-31T20:05:26.043Z,9.13
2022-12-31T20:07:52.414Z,7.03
2022-12-31T20:10:18.939Z,6.00
2022-12-31T20:12:45.634Z,10.98
2022-12-31T20:15:12.095Z,11.77
2022-12-31T20:17:38.536Z,9.10
2022-12-31T20:20:06.702Z,9.93
2022-12-31T20:22:33.621Z,7.88
2022-12-31T20:25:00.161Z,7.97
2022-12-31T20:27:26.720Z,8.55
2022-12-31T20:29:53.170Z,8.47
2022-12-31T20:32:19.715Z,11.18
2022-12-31T20:34:46.088Z,8.73
2022-12-31T20:37:12.553Z,8.32
2022-12-31T20:39:38.968Z,10.10
2022-12-31T20:42:05.413Z,12.90
2022-12-31T20:44:31.816Z,9.52
2022-12-31T20:46:58.191Z,13.57
2022-12-31T20:49:52.099Z,12.55
2022-12-31T20:52:11.009Z,8.85
2022-12-31T20:54:37.468Z,6.90
2022-12-31T20:57:03.945Z,9.48
2022-12-31T20:59:31.252Z,6.97
2022-12-31T21:02:21.029Z,13.05
2022-12-31T21:04:45.332Z,26.63
2022-12-31T21:07:11.878Z,9.60
2022-12-31T21:09:38.236Z,9.18
2022-12-31T21:12:23.211Z,8.57
2022-12-31T21:14:49.580Z,12.63
2022-12-31T21:17:15.904Z,9.90
2022-12-31T21:19:42.360Z,13.83
2022-12-31T21:22:08.688Z,16.58
2022-12-31T21:24:35.063Z,11.88
2022-12-31T21:27:01.479Z,8.20
2022-12-31T21:29:31.332Z,12.45
2022-12-31T21:32:00.888Z,11.63
2022-12-31T21:34:27.284Z,7.88
2022-12-31T21:36:53.682Z,8.65
2022-12-31T21:39:20.043Z,13.40
2022-12-31T21:41:52.130Z,11.05
2022-12-31T21:44:28.343Z,9.87
2022-12-31T21:47:36.444Z,8.43
2022-12-31T21:50:05.209Z,9.05
2022-12-31T21:52:33.893Z,20.73
2022-12-31T21:55:20.891Z,14.68
2022-12-31T21:58:24.380Z,17.23
2022-12-31T22:00:55.124Z,9.90
2022-12-31T22:03:24.278Z,10.27
2022-12-31T22:05:58.782Z,16.55
2022-12-31T22:08:25.900Z,15.40
2022-12-31T22:10:53.210Z,13.77
2022-12-31T22:13:19.929Z,13.68
2022-12-31T22:15:48.225Z,5.57
2022-12-31T22:18:16.369Z,12.70
2022-12-31T22:20:42.805Z,8.15
2022-12-31T22:23:09.365Z,9.53
2022-12-31T22:25:37.800Z,13.68
2022-12-31T22:28:37.031Z,9.75
2022-12-31T22:30:52.108Z,10.35
2022-12-31T22:33:18.814Z,8.77
2022-12-31T22:35:45.197Z,12.00
2022-12-31T22:38:12.349Z,11.05
2022-12-31T22:40:39.286Z,8.05
2022-12-31T22:43:05.624Z,7.53
2022-12-31T22:45:31.983Z,9.43
2022-12-31T22:47:58.359Z,7.83
2022-12-31T22:50:24.717Z,6.05
2022-12-31T22:52:51.091Z,8.27
2022-12-31T22:55:17.507Z,8.88
2022-12-31T22:57:43.843Z,6.70
2022-12-31T23:00:13.651Z,11.57
2022-12-31T23:02:42.236Z,9.43
2022-12-31T23:05:16.123Z,15.93
2022-12-31T23:07:43.057Z,36.33
2022-12-31T23:10:29.295Z,57.67
2022-12-31T23:12:55.624Z,88.07
2022-12-31T23:15:40.388Z,64.35
2022-12-31T23:18:25.165Z,86.55
2022-12-31T23:21:09.953Z,78.25
2022-12-31T23:23:36.345Z,73.93
2022-12-31T23:26:02.804Z,79.20
2022-12-31T23:28:29.176Z,52.03
2022-12-31T23:30:55.544Z,58.22
2022-12-31T23:33:26.538Z,69.20
2022-12-31T23:36:06.823Z,58.35
2022-12-31T23:38:33.297Z,23.50
2022-12-31T23:40:59.708Z,43.03
2022-12-31T23:43:26.084Z,25.08
2022-12-31T23:45:53.149Z,27.45
2022-12-31T23:48:19.895Z,24.08
2022-12-31T23:50:53.012Z,28.10
2022-12-31T23:53:20.477Z,22.02
2022-12-31T23:55:46.812Z,17.80
2022-12-31T23:58:13.194Z,26.23
